• Join FlightAware (Why Join?)
  • Login
  • US Flag 
09:49PM EDT


 

Airport Tracker/Info


-or-


 

Live Flight TrackerFlight Track Log ✈ N700EG ✈ 04-Mar-2014 ✈ MYAM / MHH - KPIE

Flight Track Log - Related Links

Times and Time Zones

All times are in EST time to prevent confusion due to time zone crossing. See the N700EG flight status page for this flight to view local times or setup timezone preferences in your user account.

Time Position Orientation Groundspeed Altitude Reporting Facility
EST Latitude Longitude Course Direction KTS MPH feet Rate Location/Type
02:01PM 26.6183 -77.3722 289° West 261 300 8,500  Level Miami Center
02:03PM 26.6492 -77.4839 287° West 211 243 10,700 1,080 Climbing Miami Center
02:04PM 26.6658 -77.5469 286° West 191 220 11,800 1,080 Climbing Miami Center
02:05PM 26.6758 -77.5981 282° West 184 212 12,900 1,020 Climbing Miami Center
02:06PM 26.5972 -77.4518 289° West  Level FlightAware Approximate
02:06PM 26.6944 -77.6494 292° West 174 200 13,900  Level Miami Center
02:07PM 26.7067 -77.7147 282° West 193 222 14,900 1,020 Climbing Miami Center
02:08PM 26.7231 -77.7636 291° West 193 222 16,000 900 Climbing Miami Center
02:09PM 26.7311 -77.8194 279° West 185 213 16,800 840 Climbing Miami Center
02:10PM 26.7431 -77.8825 282° West 192 221 17,700 900 Climbing Miami Center
02:11PM 26.7553 -77.9336 285° West 192 221 18,600 1,140 Climbing Miami Center
02:12PM 26.7675 -77.9919 283° West 192 221 20,000 660 Climbing Miami Center
02:13PM 26.7753 -78.0550 278° West 198 228 20,000  Level Miami Center
02:14PM 26.7872 -78.1247 281° West 198 228 20,000  Level Miami Center
02:15PM 26.8033 -78.1878 286° West 220 253 20,000  Level Miami Center
02:16PM 26.8111 -78.2625 277° West 225 259 20,000  Level Miami Center
02:17PM 26.8228 -78.3417 279° West 245 282 20,000  Level Miami Center
02:18PM 26.8408 -78.4072 287° West 245 282 20,000  Level Miami Center
02:19PM 26.8528 -78.4794 281° West 239 275 20,000  Level Miami Center
02:20PM 26.8644 -78.5542 280° West 234 269 20,000  Level Miami Center
02:21PM 26.8781 -78.6219 283° West 239 275 20,000  Level Miami Center
02:22PM 26.8897 -78.6919 281° West 239 275 20,000  Level Miami Center
02:23PM 26.9033 -78.7667 282° West 239 275 20,000  Level Miami Center
02:24PM 26.9150 -78.8369 281° West 239 275 20,000  Level Miami Center
02:25PM 26.9267 -78.9069 281° West 239 275 20,000  Level Miami Center
02:26PM 26.9403 -78.9794 282° West 239 275 20,000  Level Miami Center
02:27PM 26.9517 -79.0542 280° West 239 275 20,000  Level Miami Center
02:28PM 26.9653 -79.1267 282° West 239 275 20,000  Level Miami Center
02:29PM 26.9786 -79.2017 281° West 239 275 20,000 -60 Level Miami Center
02:30PM 26.9919 -79.2742 282° West 245 282 19,900  Descending Miami Center
02:31PM 27.0053 -79.3467 282° West 237 273 20,000  Climbing Miami Center
02:32PM 27.0169 -79.4122 281° West 237 273 19,900  Descending Miami Center
02:33PM 27.0303 -79.4825 282° West 237 273 20,000  Climbing Miami Center
02:34PM 27.0392 -79.5642 277° West 237 273 20,000  Level Miami Center
02:35PM 27.0544 -79.6369 283° West 237 273 20,000 -60 Level Miami Center
02:36PM 27.0675 -79.7119 281° West 243 280 19,900 -60 Descending Miami Center
02:37PM 27.0789 -79.7775 281° West 238 274 19,900  Level Miami Center
02:38PM 27.0919 -79.8572 280° West 238 274 19,900  Level Miami Center
02:39PM 27.0986 -79.9344 276° West 243 280 19,900  Level Miami Center
02:40PM 27.1117 -80.0069 281° West 243 280 19,900  Level Miami Center
02:41PM 27.1247 -80.0797 281° West 243 280 19,900  Level Miami Center
02:42PM 27.1378 -80.1525 281° West 238 274 19,900  Level Miami Center
02:43PM 27.1506 -80.2275 281° West 238 274 20,000  Climbing Miami Center
02:44PM 27.1614 -80.3000 280° West 238 274 19,900  Descending Miami Center
02:45PM 27.1722 -80.3706 280° West 238 274 20,000  Climbing Miami Center
02:46PM 27.1850 -80.4433 281° West 238 274 19,900 -60 Descending Miami Center
02:47PM 27.1978 -80.5183 281° West 238 274 19,900  Level Miami Center
02:48PM 27.2106 -80.5889 282° West 238 274 19,900  Level Miami Center
02:49PM 27.2211 -80.6639 279° West 238 274 19,900  Level Miami Center
02:50PM 27.2300 -80.7225 280° West 238 274 19,900  Level Miami Center
02:51PM 27.2444 -80.8094 281° West 238 274 19,900  Level Miami Center
02:52PM 27.2550 -80.8822 279° West 238 274 19,900  Level Miami Center
02:53PM 27.2675 -80.9528 281° West 238 274 19,900  Level Miami Center
02:54PM 27.2800 -81.0256 281° West 238 274 20,000  Climbing Miami Center
02:55PM 27.2908 -81.0867 281° West 233 268 20,000 -60 Level Miami Center
02:56PM 27.3031 -81.1714 279° West 240 276 19,900 -180 Descending Miami Center
02:57PM 27.3153 -81.2442 281° West 240 276 19,700 -600 Descending Miami Center
02:58PM 27.3256 -81.3194 279° West 240 276 18,700 -1,140 Descending Miami Center
02:59PM 27.3381 -81.3853 282° West 240 276 17,500 -1,380 Descending Miami Center
03:00PM 27.3503 -81.4653 280° West 247 284 16,000 -1,260 Descending Miami Center
03:01PM 27.3619 -81.5544 278° West 255 293 15,000 -1,200 Descending Miami Center
03:02PM 27.3761 -81.6347 281° West 255 293 13,600 -1,260 Descending Miami Center
03:03PM 27.3900 -81.7169 281° West 260 299 12,500 -1,320 Descending Miami Center
03:04PM 27.3997 -81.7992 278° West 260 299 11,000 -1,380 Descending Miami Center
03:05PM 27.4117 -81.8769 280° West 260 299 9,800 -1,440 Descending Miami Center
03:06PM 27.4239 -81.9475 281° West 249 287 8,200 -960 Descending Miami Center
03:07PM 27.4339 -82.0183 279° West 243 280 7,900 -120 Descending Miami Center
03:08PM 27.4439 -82.0864 279° West 232 267 8,000  Climbing Miami Center
03:09PM 27.4606 -82.1481 287° West 221 254 8,000  Level Miami Center
03:10PM 27.5025 -82.1992 313° West 209 241 8,000  Level Miami Center
03:11PM 27.5428 -82.2386 319° Northwest 209 241 8,000  Level Miami Center
03:12PM 27.5861 -82.3014 308° West 224 258 8,000 -360 Level Miami Center
03:13PM 27.6028 -82.3561 289° West 210 242 7,300 -1,320 Descending Miami Center
03:14PM 27.6089 -82.4172 276° West 197 227 5,400 -1,500 Descending Miami Center
03:15PM 27.6167 -82.5000 276° West 200 230 4,000 -660 Descending Tampa TRACON
03:16PM 27.6333 -82.5500 291° West 185 213 4,000  Level Tampa TRACON
03:17PM 27.6500 -82.6167 286° West 186 214 4,000  Level Tampa TRACON
03:18PM 27.6667 -82.6667 291° West 188 216 4,000  Level Tampa TRACON
03:19PM 27.7000 -82.7000 318° Northwest 200 230 4,000 -120 Level Tampa TRACON
03:20PM 27.7500 -82.7167 344° North 203 234 3,800 -720 Descending Tampa TRACON
03:21PM 27.8167 -82.7333 348° North 199 229 2,500 -1,080 Descending Tampa TRACON
03:22PM 27.8667 -82.7333 360° North 192 221 1,600 -480 Descending Tampa TRACON
03:23PM 27.9000 -82.7333 360° North 140 161 1,600 -60 Level Tampa TRACON
03:24PM 27.9333 -82.7500 336° Northwest 125 144 1,500 -360 Descending Tampa TRACON
03:25PM 27.9667 -82.7167 41° Northeast 136 157 900 -600 Descending Tampa TRACON
03:26PM 27.9333 -82.7000 156° South 123 142 200 -720 Descending Tampa TRACON
03:28PM 27.9100 -82.6875 119° Southeast  Level Estimated
03:35PM 27.9100 -82.6875 119° Southeast  Level Estimated